Nearby METAR Reports

 

KLXT - Lees Summit Muni, Missouri, USA
Distance from station: E 5mi, 9km
Updated: Sun, 18-Feb-2018 7:22pm CST
Overcast
Overcast
 Wind from SSW
Wind: SSW 9 mph , 15 km/h
Temperature: 55°F , 13°C
Dew Point: 36°F , 2°C
Humidity: 47%
Barometer: 29.73 inHg , 1006.8 hPa
Clouds: Overcast
Visibility: 10 miles , 16 km
Cloud details: Overcast 3100 ft
2018/02/19 01:22 KLXT 190122Z AUTO 21008KT 10SM OVC031 13/02 A2973 RMK AO2 T01280022
KMKC - Kansas City/Dntn, Missouri, USA
Distance from station: NW 12mi, 19km
Updated: Sun, 18-Feb-2018 6:54pm CST
Overcast
Overcast
 Wind from S
Wind: S 20 mph , 31 km/h, Gust: 24 mph , 39 km/h
Temperature: 57°F , 14°C
Dew Point: 37°F , 3°C
Humidity: 48%
Barometer: 29.71 inHg , 1006.1 hPa
Clouds: Overcast
Visibility: 10 miles , 16 km
Cloud details: Overcast 3300 ft
2018/02/19 00:54 KMKC 190054Z 19017G21KT 10SM OVC033 14/03 A2971 RMK AO2 SLP059 T01440028 $
 
KIXD - Olathe/Industria, Kansas, USA
Distance from station: WSW 25mi, 41km
Updated: Sun, 18-Feb-2018 6:53pm CST
Overcast
Overcast
 Wind from S
Wind: S 18 mph , 30 km/h, Gust: 29 mph , 46 km/h
Temperature: 54°F , 12°C
Dew Point: 39°F , 4°C
Humidity: 58%
Barometer: 29.71 inHg , 1006.1 hPa
Clouds: Overcast
Visibility: 10 miles , 16 km
Cloud details: Overcast 2600 ft
2018/02/19 00:53 KIXD 190053Z 18016G25KT 10SM OVC026 12/04 A2971 RMK AO2 PK WND 19028/0043 SLP062 T01220039
KMCI - Kansas City/Intl, Missouri, USA
Distance from station: NW 26mi, 42km
Updated: Sun, 18-Feb-2018 6:53pm CST
Overcast
Overcast
 Wind from S
Wind: S 21 mph , 33 km/h
Temperature: 55°F , 13°C
Dew Point: 36°F , 2°C
Humidity: 47%
Barometer: 29.69 inHg , 1005.4 hPa
Clouds: Overcast
Visibility: 10 miles , 16 km
Cloud details: Mostly cloudy 2800 ft
Overcast 3300 ft
2018/02/19 00:53 KMCI 190053Z 19018KT 10SM BKN028 OVC033 13/02 A2969 RMK AO2 PK WND 19029/0018 SLP055 T01280022
 
KRCM - Warrensburg Skyh, Missouri, USA
Distance from station: ESE 38mi, 62km
Updated: Sun, 18-Feb-2018 8:15pm CST
Overcast
Overcast
 Wind from SSE
Wind: SSE 15 mph , 24 km/h, Gust: 23 mph , 37 km/h
Temperature: 52°F , 11°C
Dew Point: 32°F , 0°C
Humidity: 47%
Barometer: 29.74 inHg , 1007.1 hPa
Clouds: Overcast
Visibility: 10 miles , 16 km
Cloud details: Mostly cloudy 2800 ft
Overcast 3500 ft
2018/02/19 02:15 KRCM 190215Z AUTO 16013G20KT 10SM BKN028 OVC035 11/00 A2974 RMK AO2
KLWC - Lawrence, Kansas, USA
Distance from station: W 40mi, 65km
Updated: Sun, 18-Feb-2018 6:52pm CST
Overcast
Overcast
 Wind from S
Wind: S 13 mph , 20 km/h, Gust: 25 mph , 41 km/h
Temperature: 55°F , 13°C
Dew Point: 41°F , 5°C
Humidity: 59%
Barometer: 29.72 inHg , 1006.4 hPa
Clouds: Overcast
Visibility: 10 miles , 16 km
Cloud details: Overcast 2900 ft
2018/02/19 00:52 KLWC 190052Z AUTO 17011G22KT 10SM OVC029 13/05 A2972 RMK AO2 SLP066 T01280050
 
KSZL - Whiteman Afb, Missouri, USA
Distance from station: ESE 53mi, 86km
Updated: Sun, 18-Feb-2018 6:56pm CST
Overcast
Overcast
 Wind from S
Wind: S 24 mph , 39 km/h, Gust: 32 mph , 52 km/h
Temperature: 52°F , 11°C
Dew Point: 34°F , 1°C
Humidity: 50%
Barometer: 29.71 inHg , 1006.1 hPa
Clouds: Overcast
Visibility: 10 miles , 16 km
Cloud details: Partly cloudy 4100 ft
Overcast 5500 ft
2018/02/19 00:56 KSZL 190056Z AUTO 17021G28KT 10SM SCT041 OVC055 11/01 A2971 RMK AO2 PK WND 17028/51 SLP067 T01110005 $
KSTJ - St. Joseph, Missouri, USA
Distance from station: NNW 59mi, 95km
Updated: Sun, 18-Feb-2018 6:53pm CST
Overcast
Overcast
 Wind from S
Wind: S 20 mph , 31 km/h
Temperature: 54°F , 12°C
Dew Point: 37°F , 3°C
Humidity: 54%
Barometer: 29.67 inHg , 1004.7 hPa
Clouds: Overcast
Visibility: 10 miles , 16 km
Cloud details: Overcast 3800 ft
2018/02/19 00:53 KSTJ 190053Z AUTO 18017KT 10SM OVC038 12/03 A2967 RMK AO2 SLP050 T01220028
 
KGLY - Clinton, Missouri, USA
Distance from station: SE 61mi, 98km
Updated: Sun, 18-Feb-2018 7:35pm CST
Overcast
Overcast
 Wind from S
Wind: S 14 mph , 22 km/h
Temperature: 54°F , 12°C
Dew Point: 36°F , 2°C
Humidity: 51%
Barometer: 29.77 inHg , 1008.1 hPa
Clouds: Overcast
Visibility: 10 miles , 16 km
Cloud details: Mostly cloudy 2600 ft
Overcast 4300 ft
2018/02/19 01:35 KGLY 190135Z AUTO 18012KT 10SM BKN026 OVC043 12/02 A2977 RMK AO2
KFOE - Topeka/Forbes, Kansas, USA
Distance from station: W 64mi, 103km
Updated: Sun, 18-Feb-2018 6:53pm CST
Overcast
Overcast
 Wind from S
Wind: S 20 mph , 31 km/h, Gust: 30 mph , 48 km/h
Temperature: 54°F , 12°C
Dew Point: 43°F , 6°C
Humidity: 67%
Barometer: 29.67 inHg , 1004.7 hPa
Clouds: Overcast
Visibility: 10 miles , 16 km
Cloud details: Overcast 2400 ft
2018/02/19 00:53 KFOE 190053Z 18017G26KT 10SM OVC024 12/06 A2967 RMK AO2 PK WND 18028/2357 SLP049 T01220056 $
 
KDMO - Sedalia, Missouri, USA
Distance from station: ESE 72mi, 116km
Updated: Sun, 18-Feb-2018 6:53pm CST
Mostly cloudy
Mostly cloudy
 Wind from SSE
Wind: SSE 18 mph , 30 km/h
Temperature: 54°F , 12°C
Dew Point: 36°F , 2°C
Humidity: 51%
Barometer: 29.78 inHg , 1008.5 hPa
Clouds: Mostly cloudy
Visibility: 10 miles , 16 km
Cloud details: Few Clouds 3500 ft
Partly cloudy 4800 ft
Mostly cloudy 6000 ft
2018/02/19 00:53 KDMO 190053Z AUTO 16016KT 10SM FEW035 SCT048 BKN060 12/02 A2978 RMK AO2 SLP089 T01170017
KCDJ - Chillicothe, Missouri, USA
Distance from station: NE 74mi, 120km
Updated: Sun, 18-Feb-2018 6:52pm CST

 Wind from S
Wind: S 13 mph , 20 km/h, Gust: 23 mph , 37 km/h
Temperature: 52°F , 11°C
Dew Point: 30°F , -1°C
Humidity: 44%
Barometer: 29.71 inHg , 1006.1 hPa
2018/02/19 00:52 KCDJ 190052Z AUTO 18011G20KT 11/M01 A2971 RMK AO1 SLP069 T01111006 $
 
KFNB - Falls City/Brenn, Nebraska, USA
Distance from station: NW 96mi, 154km
Updated: Sun, 18-Feb-2018 6:53pm CST
Mostly cloudy
Mostly cloudy
 Wind from S
Wind: S 14 mph , 22 km/h, Gust: 22 mph , 35 km/h
Temperature: 54°F , 12°C
Dew Point: 39°F , 4°C
Humidity: 58%
Barometer: 29.63 inHg , 1003.4 hPa
Clouds: Mostly cloudy
Visibility: 10 miles , 16 km
Cloud details: Mostly cloudy 3300 ft
2018/02/19 00:53 KFNB 190053Z AUTO 18012G19KT 10SM BKN033 12/04 A2963 RMK AO2 PK WND 19026/2357 SLP035 T01170039
KVER - Boonville, Missouri, USA
Distance from station: E 96mi, 154km
Updated: Sun, 18-Feb-2018 7:15pm CST
Mostly cloudy
Mostly cloudy
 Wind from SSE
Wind: SSE 18 mph , 30 km/h, Gust: 25 mph , 41 km/h
Temperature: 52°F , 11°C
Dew Point: 30°F , -1°C
Humidity: 44%
Barometer: 29.78 inHg , 1008.5 hPa
Clouds: Mostly cloudy
Visibility: 10 miles , 16 km
Cloud details: Mostly cloudy 5500 ft
2018/02/19 01:15 KVER 190115Z AUTO 16016G22KT 10SM BKN055 11/M01 A2978 RMK AO2 T01071011